Time;durP1;ratioP1;P1;durP2;ratioP2;P2;SDS_P1;SDS_P2;PMS_P1;PMS_P2;Temp;Humidity;BMP_temperature;BMP_pressure;BME280_temperature;BME280_humidity;BME280_pressure;Samples;Min_cycle;Max_cycle;Signal;HPM_P1;HPM_P2
2021/03/25 00:00:38;;;;;;;17.93;7.63;;;;;;;6.88;100.00;98580.00;4965569;28;20209;-66
2021/03/25 00:03:10;;;;;;;17.50;7.73;;;;;;;6.92;100.00;98584.00;4973826;28;20209;-67
2021/03/25 00:05:37;;;;;;;18.27;8.10;;;;;;;6.90;100.00;98589.47;4964611;28;20218;-66
2021/03/25 00:08:07;;;;;;;17.63;8.10;;;;;;;6.82;100.00;98585.97;4969108;28;20212;-67
2021/03/25 00:10:36;;;;;;;14.87;7.13;;;;;;;6.75;100.00;98583.13;4970425;28;20577;-66
2021/03/25 00:13:04;;;;;;;15.97;7.40;;;;;;;6.66;100.00;98581.44;4972913;28;20286;-66
2021/03/25 00:15:31;;;;;;;14.00;7.60;;;;;;;6.60;100.00;98578.63;4969865;28;20208;-66
2021/03/25 00:17:59;;;;;;;17.27;7.60;;;;;;;6.74;100.00;98573.53;4974781;28;20209;-67
2021/03/25 00:20:26;;;;;;;13.97;6.77;;;;;;;6.77;100.00;98580.31;4966287;28;20211;-67
2021/03/25 00:22:54;;;;;;;13.10;7.03;;;;;;;6.74;100.00;98575.31;4968459;28;20203;-67
2021/03/25 00:25:22;;;;;;;16.87;7.80;;;;;;;6.78;100.00;98571.38;4972611;28;20207;-66
2021/03/25 00:27:49;;;;;;;15.47;8.07;;;;;;;6.74;100.00;98567.38;4967184;28;20201;-67
2021/03/25 00:30:19;;;;;;;16.47;7.30;;;;;;;6.72;100.00;98566.72;4967283;28;20336;-66
2021/03/25 00:32:46;;;;;;;14.83;6.83;;;;;;;6.59;100.00;98563.69;4969603;28;20280;-66
2021/03/25 00:35:14;;;;;;;16.97;7.63;;;;;;;6.60;100.00;98565.38;4974273;28;20215;-66
2021/03/25 00:37:41;;;;;;;17.80;7.30;;;;;;;6.57;100.00;98563.03;4964413;28;20205;-66
2021/03/25 00:40:10;;;;;;;15.77;8.07;;;;;;;6.54;100.00;98558.88;4968620;28;20236;-67
2021/03/25 00:42:37;;;;;;;17.37;7.47;;;;;;;6.47;100.00;98557.88;4970439;28;20680;-66
2021/03/25 00:45:06;;;;;;;17.03;7.87;;;;;;;6.44;100.00;98560.84;4970881;28;20252;-67
2021/03/25 00:47:33;;;;;;;13.30;7.23;;;;;;;6.43;100.00;98559.19;4963444;28;20573;-67
2021/03/25 00:50:00;;;;;;;16.77;8.13;;;;;;;6.38;100.00;98558.84;4970407;28;20229;-66
2021/03/25 00:55:04;;;;;;;18.20;7.83;;;;;;;6.36;100.00;98549.41;5005092;28;20216;-70
2021/03/25 00:57:31;;;;;;;20.03;7.53;;;;;;;6.31;100.00;98552.53;5009677;28;20208;-70
2021/03/25 00:59:57;;;;;;;18.07;7.63;;;;;;;6.29;100.00;98549.22;5007582;28;20211;-71
2021/03/25 01:02:24;;;;;;;16.53;8.17;;;;;;;6.31;100.00;98547.25;5011350;28;20565;-71
2021/03/25 01:04:51;;;;;;;14.83;7.43;;;;;;;6.19;100.00;98550.34;5001489;28;20224;-71
2021/03/25 01:07:22;;;;;;;15.23;7.53;;;;;;;6.21;100.00;98543.06;5011020;28;20201;-71
2021/03/25 01:09:49;;;;;;;16.43;7.47;;;;;;;6.17;100.00;98550.50;5005300;28;20216;-70
2021/03/25 01:12:17;;;;;;;17.50;7.17;;;;;;;6.17;100.00;98542.56;5007408;28;20624;-71
2021/03/25 01:14:44;;;;;;;16.80;7.37;;;;;;;6.08;100.00;98534.72;5009653;28;20393;-71
2021/03/25 01:17:11;;;;;;;15.20;7.63;;;;;;;5.94;100.00;98544.09;5002501;28;20267;-71
2021/03/25 01:19:37;;;;;;;19.23;8.13;;;;;;;5.97;100.00;98533.19;5011705;28;20296;-71
2021/03/25 01:22:05;;;;;;;21.90;8.80;;;;;;;5.98;100.00;98529.56;5012314;28;20290;-71
2021/03/25 01:24:32;;;;;;;15.27;7.77;;;;;;;6.11;100.00;98540.56;5009718;28;20236;-71
2021/03/25 01:26:58;;;;;;;17.03;8.07;;;;;;;5.98;100.00;98534.84;5006701;28;20610;-71
2021/03/25 01:29:26;;;;;;;18.77;8.37;;;;;;;5.98;100.00;98534.84;5004448;28;20230;-71
2021/03/25 01:31:53;;;;;;;15.83;7.07;;;;;;;6.04;100.00;98528.09;5012216;28;20559;-71
2021/03/25 01:34:22;;;;;;;14.77;7.60;;;;;;;6.01;100.00;98526.59;5010985;28;20246;-71
2021/03/25 01:36:49;;;;;;;17.40;7.80;;;;;;;5.97;100.00;98529.72;5008358;28;20213;-71
2021/03/25 01:39:16;;;;;;;18.30;7.90;;;;;;;6.00;100.00;98526.75;5004290;28;20225;-71
2021/03/25 01:41:43;;;;;;;15.77;7.57;;;;;;;5.93;100.00;98521.25;5010864;28;20211;-71
2021/03/25 01:44:34;;;;;;;17.93;7.13;;;;;;;5.97;100.00;98519.97;5012416;28;21792;-71
2021/03/25 01:47:02;;;;;;;17.00;7.50;;;;;;;5.90;100.00;98520.75;5012282;28;20208;-71
2021/03/25 01:49:29;;;;;;;17.70;7.80;;;;;;;5.90;100.00;98518.09;5010066;28;20211;-71
2021/03/25 01:52:08;;;;;;;17.10;7.63;;;;;;;5.80;100.00;98520.03;5012296;28;20208;-71
2021/03/25 01:55:14;;;;;;;14.27;6.97;;;;;;;5.87;100.00;98521.06;5011322;28;20241;-71
2021/03/25 01:57:56;;;;;;;18.97;7.73;;;;;;;5.81;100.00;98517.25;4970381;28;20211;-71
2021/03/25 02:00:33;;;;;;;15.80;7.77;;;;;;;5.86;100.00;98517.59;5011282;28;20203;-71
2021/03/25 02:03:27;;;;;;;19.17;8.63;;;;;;;5.72;100.00;98515.50;5007620;28;20220;-71
2021/03/25 02:05:59;;;;;;;21.57;8.30;;;;;;;5.68;100.00;98513.34;4997543;28;20200;-71
2021/03/25 02:08:37;;;;;;;12.97;6.70;;;;;;;5.73;100.00;98506.56;5001570;28;20207;-71
2021/03/25 02:11:07;;;;;;;16.27;7.80;;;;;;;5.77;100.00;98499.97;5002116;28;20204;-71
2021/03/25 02:13:39;;;;;;;18.27;7.97;;;;;;;5.68;100.00;98498.28;5004943;28;20258;-71
2021/03/25 02:16:11;;;;;;;16.27;7.80;;;;;;;5.73;100.00;98497.81;5001241;28;20208;-71
2021/03/25 02:18:45;;;;;;;17.47;7.77;;;;;;;5.60;100.00;98492.09;5009553;28;20283;-71
2021/03/25 02:21:42;;;;;;;14.57;7.27;;;;;;;5.57;100.00;98484.47;5004862;28;20208;-71
2021/03/25 02:24:50;;;;;;;15.03;7.60;;;;;;;5.64;100.00;98488.16;5006968;28;20727;-71
2021/03/25 02:27:28;;;;;;;15.70;7.70;;;;;;;5.71;100.00;98489.19;4966139;28;20200;-71
2021/03/25 02:29:58;;;;;;;17.23;7.93;;;;;;;5.50;100.00;98473.72;4967587;28;20669;-71
2021/03/25 02:32:30;;;;;;;15.97;6.83;;;;;;;5.53;100.00;98485.81;4990210;28;20668;-71
2021/03/25 02:34:59;;;;;;;15.83;8.57;;;;;;;5.54;100.00;98485.63;5002388;28;20219;-71
2021/03/25 02:37:28;;;;;;;16.00;7.90;;;;;;;5.54;100.00;98482.16;5004796;28;20204;-71
2021/03/25 02:40:04;;;;;;;17.13;8.20;;;;;;;5.60;100.00;98481.53;5008397;28;20310;-71
2021/03/25 02:42:35;;;;;;;15.63;7.60;;;;;;;5.50;100.00;98483.47;5010264;28;20675;-71
2021/03/25 02:45:06;;;;;;;16.27;8.20;;;;;;;5.55;100.00;98491.75;5001876;28;20254;-71
2021/03/25 02:47:36;;;;;;;16.63;7.07;;;;;;;5.50;100.00;98494.88;4995581;28;20211;-71
2021/03/25 02:50:07;;;;;;;14.97;6.97;;;;;;;5.44;100.00;98487.53;5004111;28;20203;-71
2021/03/25 02:52:37;;;;;;;16.07;7.83;;;;;;;5.31;100.00;98481.88;5000101;28;20235;-71
2021/03/25 02:55:07;;;;;;;17.43;7.83;;;;;;;5.40;100.00;98482.75;5005762;28;20213;-71
2021/03/25 02:57:43;;;;;;;18.73;8.63;;;;;;;5.25;100.00;98476.38;5006367;28;20698;-71
2021/03/25 03:00:14;;;;;;;18.90;7.37;;;;;;;5.22;100.00;98484.59;5005847;28;20210;-71
2021/03/25 03:02:44;;;;;;;17.97;7.90;;;;;;;5.24;100.00;98480.00;5010794;28;20284;-71
2021/03/25 03:05:14;;;;;;;17.17;7.90;;;;;;;5.41;100.00;98477.28;5004251;28;20220;-71
2021/03/25 03:07:45;;;;;;;16.07;7.87;;;;;;;5.42;100.00;98484.25;4999647;28;20214;-71
2021/03/25 03:10:17;;;;;;;19.20;8.13;;;;;;;5.35;100.00;98479.72;5004174;28;20215;-71
2021/03/25 03:12:47;;;;;;;16.40;7.20;;;;;;;5.25;100.00;98482.50;5005462;28;20223;-71
2021/03/25 03:15:19;;;;;;;16.50;7.53;;;;;;;5.22;100.00;98476.66;5005735;28;20671;-71
2021/03/25 03:17:49;;;;;;;18.00;7.77;;;;;;;5.25;100.00;98482.50;5005241;28;20689;-71
2021/03/25 03:20:19;;;;;;;15.97;8.10;;;;;;;5.14;100.00;98479.28;5010439;28;20220;-71
2021/03/25 03:22:46;;;;;;;17.97;8.37;;;;;;;5.21;100.00;98475.84;5000748;28;20589;-71
2021/03/25 03:25:15;;;;;;;15.03;7.50;;;;;;;5.22;100.00;98474.84;5006450;28;20212;-71
2021/03/25 03:27:45;;;;;;;15.40;7.63;;;;;;;5.22;100.00;98477.50;5007782;28;20689;-72
2021/03/25 03:30:14;;;;;;;17.67;7.80;;;;;;;5.24;100.00;98472.06;5004734;28;20206;-71
2021/03/25 03:32:48;;;;;;;18.07;7.53;;;;;;;5.19;100.00;98477.81;5006644;28;20230;-71
2021/03/25 03:35:17;;;;;;;16.67;7.63;;;;;;;5.12;100.00;98476.78;5008809;28;20255;-71
2021/03/25 03:37:47;;;;;;;19.77;8.13;;;;;;;5.12;100.00;98474.13;5007820;28;20210;-71
2021/03/25 03:40:17;;;;;;;20.10;8.00;;;;;;;5.16;100.00;98480.78;5007508;28;20671;-71
2021/03/25 03:42:45;;;;;;;15.57;7.40;;;;;;;5.20;100.00;98482.13;5002241;28;20207;-71
2021/03/25 03:45:16;;;;;;;16.40;8.00;;;;;;;5.20;100.00;98482.13;5009418;28;20583;-71
2021/03/25 03:47:44;;;;;;;18.80;7.97;;;;;;;5.19;100.00;98477.81;5001763;28;20261;-71
2021/03/25 03:50:19;;;;;;;24.93;8.40;;;;;;;5.14;100.00;98481.91;5004574;28;20563;-71
2021/03/25 03:52:49;;;;;;;15.90;8.27;;;;;;;5.05;100.00;98486.34;5006229;28;20236;-72
2021/03/25 03:55:17;;;;;;;17.33;7.60;;;;;;;5.01;100.00;98486.78;5008856;28;20207;-71
2021/03/25 03:57:48;;;;;;;19.43;8.33;;;;;;;4.96;100.00;98481.97;5005908;28;20204;-71
2021/03/25 04:00:20;;;;;;;17.07;7.77;;;;;;;4.95;100.00;98485.59;5005201;28;20258;-71
2021/03/25 04:02:55;;;;;;;15.03;7.53;;;;;;;4.99;100.00;98484.31;5009845;28;20211;-71
2021/03/25 04:05:25;;;;;;;17.43;8.23;;;;;;;5.00;100.00;98483.31;5009834;28;20337;-69
2021/03/25 04:07:58;;;;;;;18.17;8.33;;;;;;;4.92;100.00;98485.91;4996777;28;20211;-71
2021/03/25 04:10:28;;;;;;;14.50;6.90;;;;;;;4.92;100.00;98482.44;5004232;28;20208;-70
2021/03/25 04:12:57;;;;;;;17.03;7.70;;;;;;;4.96;100.00;98476.69;5012169;28;20322;-71
2021/03/25 04:15:26;;;;;;;18.30;9.17;;;;;;;5.02;100.00;98483.16;5011771;28;20212;-69
2021/03/25 04:17:58;;;;;;;18.67;8.27;;;;;;;5.02;100.00;98476.06;5004081;28;20743;-71
2021/03/25 04:20:26;;;;;;;17.33;8.17;;;;;;;4.97;100.00;98485.44;5009259;28;20208;-71
2021/03/25 04:22:57;;;;;;;15.27;7.87;;;;;;;4.91;100.00;98483.41;5008559;28;20219;-71
2021/03/25 04:25:27;;;;;;;21.43;8.87;;;;;;;5.01;100.00;98482.34;5006174;28;20225;-71
2021/03/25 04:27:57;;;;;;;16.73;7.90;;;;;;;4.99;100.00;98479.03;5011453;28;20294;-72
2021/03/25 04:30:26;;;;;;;21.20;7.63;;;;;;;4.96;100.00;98479.31;5007898;28;20214;-71
2021/03/25 04:32:53;;;;;;;16.83;7.97;;;;;;;4.93;100.00;98482.25;5007006;28;20231;-71
2021/03/25 04:35:22;;;;;;;18.30;8.83;;;;;;;4.93;100.00;98486.75;5009204;28;20290;-72
2021/03/25 04:37:50;;;;;;;16.23;7.63;;;;;;;4.94;100.00;98475.16;5004629;28;20200;-71
2021/03/25 04:40:21;;;;;;;16.73;7.70;;;;;;;4.95;100.00;98472.38;5006548;28;20238;-71
2021/03/25 04:42:48;;;;;;;18.73;7.93;;;;;;;5.04;100.00;98473.25;5009049;28;20688;-71
2021/03/25 04:45:24;;;;;;;18.33;8.07;;;;;;;5.11;100.00;98475.13;5008299;28;20207;-71
2021/03/25 04:47:53;;;;;;;15.23;7.90;;;;;;;4.98;100.00;98481.81;5008066;28;20216;-71
2021/03/25 04:50:24;;;;;;;15.63;7.50;;;;;;;4.95;100.00;98475.03;5011841;28;20681;-71
2021/03/25 04:53:01;;;;;;;19.17;7.60;;;;;;;4.95;100.00;98479.47;5006779;28;20802;-71
2021/03/25 04:55:28;;;;;;;18.77;7.87;;;;;;;4.89;100.00;98470.34;5005321;28;20223;-71
2021/03/25 04:57:56;;;;;;;13.17;6.80;;;;;;;4.86;100.00;98468.00;5014566;28;20199;-71
2021/03/25 05:00:26;;;;;;;16.77;7.57;;;;;;;4.87;100.00;98468.84;5012483;28;20211;-71
2021/03/25 05:02:54;;;;;;;14.20;7.27;;;;;;;4.88;100.00;98466.03;5002262;28;20215;-71
2021/03/25 05:05:24;;;;;;;13.83;6.97;;;;;;;4.87;100.00;98467.00;5008050;28;20576;-71
2021/03/25 05:07:56;;;;;;;15.00;7.20;;;;;;;4.99;100.00;98471.09;5003847;28;20207;-71
2021/03/25 05:10:26;;;;;;;14.77;6.60;;;;;;;4.96;100.00;98471.38;5007828;28;20286;-71
2021/03/25 05:12:54;;;;;;;12.73;6.67;;;;;;;5.02;100.00;98473.41;5011612;28;20234;-71
2021/03/25 05:15:21;;;;;;;10.87;5.20;;;;;;;4.90;100.00;98476.44;5005323;28;20657;-71
2021/03/25 05:17:52;;;;;;;13.33;6.80;;;;;;;4.95;100.00;98477.66;5002949;28;20694;-71
2021/03/25 05:20:21;;;;;;;13.77;6.90;;;;;;;4.84;100.00;98474.44;5008868;28;20210;-71
2021/03/25 05:22:55;;;;;;;14.10;6.70;;;;;;;4.80;100.00;98479.19;5002486;28;20214;-71
2021/03/25 05:25:26;;;;;;;14.87;7.00;;;;;;;4.89;100.00;98485.38;5010019;28;20214;-71
2021/03/25 05:27:56;;;;;;;10.57;5.87;;;;;;;4.92;100.00;98477.97;5001980;28;20207;-71
2021/03/25 05:30:25;;;;;;;12.10;6.33;;;;;;;4.96;100.00;98481.97;5012779;28;20243;-71
2021/03/25 05:32:55;;;;;;;11.33;5.93;;;;;;;5.02;100.00;98491.09;5005632;28;20233;-76
2021/03/25 05:35:24;;;;;;;9.93;5.60;;;;;;;5.04;100.00;98489.97;5005688;28;20214;-77
2021/03/25 05:37:51;;;;;;;9.37;5.80;;;;;;;4.86;100.00;98485.66;5013746;28;20207;-78
2021/03/25 05:40:24;;;;;;;11.83;6.10;;;;;;;5.01;100.00;98494.72;5012691;28;20211;-77
2021/03/25 05:43:03;;;;;;;13.03;6.20;;;;;;;5.08;100.00;98490.50;4999114;28;20199;-77
2021/03/25 05:45:38;;;;;;;13.73;7.30;;;;;;;5.27;100.00;98487.63;5012569;28;20234;-77
2021/03/25 05:48:21;;;;;;;11.87;5.70;;;;;;;5.35;100.00;98487.66;5009285;28;20210;-77
2021/03/25 05:50:53;;;;;;;11.07;6.20;;;;;;;5.34;100.00;98489.47;5012095;28;20213;-72
2021/03/25 05:53:41;;;;;;;14.80;6.50;;;;;;;5.34;100.00;98497.41;5006471;28;20685;-71
2021/03/25 05:56:19;;;;;;;15.93;6.80;;;;;;;5.45;100.00;98496.34;5006301;28;20682;-71
2021/03/25 05:58:48;;;;;;;14.40;7.00;;;;;;;5.52;100.00;98495.53;5008195;28;20207;-78
2021/03/25 06:01:28;;;;;;;14.83;6.63;;;;;;;5.62;100.00;98493.63;5005789;28;20215;-77
2021/03/25 06:03:59;;;;;;;12.50;6.97;;;;;;;5.66;100.00;98500.25;5004760;28;20230;-75
2021/03/25 06:06:37;;;;;;;12.77;6.53;;;;;;;5.74;100.00;98496.81;4998797;28;20222;-76
2021/03/25 06:09:11;;;;;;;14.77;7.43;;;;;;;5.78;100.00;98498.16;5006852;28;20687;-75
2021/03/25 06:11:50;;;;;;;11.30;6.53;;;;;;;6.12;100.00;98493.66;5000315;28;20193;-79
2021/03/25 06:14:33;;;;;;;16.67;6.33;;;;;;;6.23;100.00;98493.34;5007304;28;20741;-76
2021/03/25 06:17:19;;;;;;;15.23;7.53;;;;;;;6.53;100.00;98495.41;4997201;28;20215;-75
2021/03/25 06:20:03;;;;;;;11.63;6.63;;;;;;;6.72;100.00;98500.41;5004915;28;20211;-80
2021/03/25 06:22:34;;;;;;;17.27;6.33;;;;;;;6.80;100.00;98500.44;5011558;28;20219;-71
2021/03/25 06:25:24;;;;;;;14.90;7.33;;;;;;;7.06;100.00;98501.09;5008150;28;20209;-71
2021/03/25 06:28:10;;;;;;;16.53;6.63;;;;;;;7.07;100.00;98506.22;5003002;28;20670;-71
2021/03/25 06:30:40;;;;;;;11.50;6.93;;;;;;;7.39;100.00;98508.84;5000524;28;20573;-73
2021/03/25 06:33:12;;;;;;;13.87;6.13;;;;;;;7.54;100.00;98508.97;5010101;28;20237;-70
2021/03/25 06:35:43;;;;;;;13.10;7.13;;;;;;;7.72;100.00;98509.59;4997974;28;20730;-72
2021/03/25 06:38:17;;;;;;;11.90;6.77;;;;;;;7.91;100.00;98511.88;5010539;28;20204;-69
2021/03/25 06:40:47;;;;;;;14.27;6.40;;;;;;;8.14;100.00;98507.44;5004016;28;20250;-71
2021/03/25 06:43:20;;;;;;;8.90;5.43;;;;;;;8.37;100.00;98514.47;5009842;28;20230;-72
2021/03/25 06:45:49;;;;;;;9.63;5.43;;;;;;;8.62;100.00;98510.66;4999967;28;20210;-71
2021/03/25 06:48:19;;;;;;;8.73;5.63;;;;;;;8.64;100.00;98511.34;4999910;28;20205;-70
2021/03/25 06:50:49;;;;;;;13.50;6.10;;;;;;;8.91;100.00;98505.47;4999465;28;20215;-73
2021/03/25 06:53:23;;;;;;;14.23;5.63;;;;;;;8.64;100.00;98513.16;5009026;28;20734;-73
2021/03/25 06:55:51;;;;;;;11.00;5.20;;;;;;;9.10;100.00;98510.31;4999596;28;20304;-74
2021/03/25 06:58:24;;;;;;;11.07;5.87;;;;;;;9.33;100.00;98511.09;5007004;28;20660;-70
2021/03/25 07:00:59;;;;;;;11.97;6.17;;;;;;;9.63;100.00;98511.94;5005662;28;20206;-73
2021/03/25 07:03:28;;;;;;;12.47;6.30;;;;;;;9.66;96.52;98511.59;5004465;28;20225;-71
2021/03/25 07:05:55;;;;;;;11.60;5.10;;;;;;;9.80;94.65;98518.78;5002962;28;20214;-71
2021/03/25 07:08:24;;;;;;;11.17;5.53;;;;;;;10.01;90.91;98518.88;5009016;28;20207;-76
2021/03/25 07:10:53;;;;;;;12.33;5.80;;;;;;;10.05;90.20;98507.66;5001616;28;20202;-74
2021/03/25 07:13:29;;;;;;;12.70;5.40;;;;;;;10.27;87.26;98511.22;5004845;28;20232;-73
2021/03/25 07:15:57;;;;;;;10.47;5.37;;;;;;;10.45;85.11;98519.69;5008754;28;20734;-73
2021/03/25 07:18:34;;;;;;;12.37;5.13;;;;;;;10.51;84.88;98510.91;5009988;28;20200;-75
2021/03/25 07:21:28;;;;;;;7.63;4.70;;;;;;;10.52;82.38;98517.91;5006642;28;20202;-72
2021/03/25 07:23:57;;;;;;;9.50;5.50;;;;;;;10.04;83.98;98511.34;4999572;28;20220;-72
2021/03/25 07:26:29;;;;;;;12.13;6.37;;;;;;;10.77;86.17;98514.69;5007794;28;20218;-72
2021/03/25 07:29:03;;;;;;;9.90;5.10;;;;;;;10.77;80.04;98521.88;5007152;28;20665;-72
2021/03/25 07:31:37;;;;;;;14.63;5.90;;;;;;;11.17;78.13;98508.69;5004750;28;20207;-73
2021/03/25 07:34:04;;;;;;;11.73;5.60;;;;;;;11.49;76.64;98526.88;5004771;28;20227;-72
2021/03/25 07:36:32;;;;;;;10.40;5.57;;;;;;;11.65;75.95;98528.44;5007808;28;20354;-71
2021/03/25 07:39:05;;;;;;;10.67;5.43;;;;;;;11.23;74.43;98534.66;5009319;28;20200;-72
2021/03/25 07:41:33;;;;;;;11.10;5.30;;;;;;;11.66;72.33;98546.16;5006145;28;20722;-72
2021/03/25 07:44:04;;;;;;;11.07;5.23;;;;;;;11.76;72.70;98530.56;5014517;28;20248;-71
2021/03/25 07:46:34;;;;;;;14.30;5.90;;;;;;;11.47;73.21;98534.22;5013378;28;20219;-70
2021/03/25 07:49:13;;;;;;;16.03;5.80;;;;;;;10.85;79.42;98513.75;5010247;28;20199;-70
2021/03/25 07:51:46;;;;;;;16.07;6.13;;;;;;;10.84;78.25;98518.25;5004710;28;20215;-70
2021/03/25 07:54:16;;;;;;;8.97;5.40;;;;;;;11.34;75.34;98530.63;5004938;28;20571;-70
2021/03/25 07:56:57;;;;;;;12.73;5.83;;;;;;;11.77;72.37;98530.38;4998924;28;20299;-71
2021/03/25 07:59:30;;;;;;;12.67;5.13;;;;;;;11.93;69.24;98538.09;5008987;28;20327;-72
2021/03/25 08:01:57;;;;;;;11.07;5.57;;;;;;;12.73;66.27;98545.47;5012270;28;20214;-71
2021/03/25 08:04:29;;;;;;;8.93;5.30;;;;;;;12.94;63.34;98544.28;5010687;28;20221;-72
2021/03/25 08:07:03;;;;;;;11.67;5.50;;;;;;;13.00;61.52;98545.38;5009093;28;20744;-72
2021/03/25 08:09:30;;;;;;;11.23;4.73;;;;;;;13.74;59.56;98538.84;5007590;28;20208;-72
2021/03/25 08:12:00;;;;;;;8.73;4.50;;;;;;;13.98;56.47;98548.09;5005614;28;20672;-72
2021/03/25 08:14:30;;;;;;;15.87;5.03;;;;;;;14.32;54.97;98551.31;5004774;28;20249;-70
2021/03/25 08:16:59;;;;;;;14.50;5.03;;;;;;;14.33;55.58;98544.91;5008952;28;20212;-70
2021/03/25 08:19:40;;;;;;;9.70;5.13;;;;;;;13.03;59.80;98544.97;5012026;28;20224;-72
2021/03/25 08:22:29;;;;;;;9.70;4.77;;;;;;;13.77;57.74;98549.13;5006058;28;20212;-70
2021/03/25 08:25:20;;;;;;;17.57;5.43;;;;;;;13.21;59.01;98547.88;5010705;28;20227;-71
2021/03/25 08:28:02;;;;;;;12.00;5.10;;;;;;;13.46;59.05;98538.22;5003203;28;20207;-72
2021/03/25 08:30:37;;;;;;;9.50;5.33;;;;;;;13.06;59.99;98541.06;5009578;28;20211;-72
2021/03/25 08:33:12;;;;;;;10.27;5.43;;;;;;;12.97;60.38;98531.56;5004974;28;20270;-70
2021/03/25 08:35:44;;;;;;;10.83;5.60;;;;;;;13.26;59.94;98541.91;5010346;28;20577;-72
2021/03/25 08:38:36;;;;;;;11.70;5.57;;;;;;;13.73;58.93;98542.53;5004939;28;20234;-71
2021/03/25 08:41:05;;;;;;;14.67;5.80;;;;;;;13.83;56.20;98539.44;5008922;28;20197;-70
2021/03/25 08:43:36;;;;;;;10.23;5.70;;;;;;;14.75;53.66;98551.56;5007167;28;20234;-72
2021/03/25 08:46:08;;;;;;;9.80;5.57;;;;;;;14.16;54.73;98545.56;5001858;28;20207;-74
2021/03/25 08:48:39;;;;;;;13.33;5.80;;;;;;;14.21;55.13;98543.09;5005093;28;20207;-74
2021/03/25 08:51:11;;;;;;;14.00;5.83;;;;;;;14.02;55.13;98543.94;5008410;28;20341;-76
2021/03/25 08:53:42;;;;;;;11.50;4.77;;;;;;;14.43;55.06;98541.81;4999975;28;20698;-74
2021/03/25 08:56:37;;;;;;;12.17;5.37;;;;;;;14.73;52.24;98549.09;5010864;28;20215;-74
2021/03/25 08:59:10;;;;;;;16.67;6.23;;;;;;;14.69;52.70;98545.19;5005624;28;20211;-74
2021/03/25 09:01:43;;;;;;;8.83;5.30;;;;;;;15.24;50.64;98551.72;5004459;28;20220;-75
2021/03/25 09:04:11;;;;;;;9.90;5.67;;;;;;;14.88;50.89;98556.88;5010753;28;20606;-74
2021/03/25 09:06:39;;;;;;;8.90;5.23;;;;;;;14.55;52.16;98549.00;5011135;28;20199;-75
2021/03/25 09:09:29;;;;;;;16.50;6.00;;;;;;;14.48;52.28;98553.53;5011005;28;20264;-75
2021/03/25 09:11:56;;;;;;;14.80;6.43;;;;;;;15.19;49.68;98557.72;5008920;28;20209;-74
2021/03/25 09:14:24;;;;;;;11.23;5.87;;;;;;;14.88;50.83;98551.50;5007619;28;20230;-75
2021/03/25 09:16:59;;;;;;;10.70;5.93;;;;;;;14.50;51.48;98556.03;5005690;28;20207;-74
2021/03/25 09:19:30;;;;;;;11.87;5.67;;;;;;;15.55;49.00;98549.84;5006638;28;20260;-75
2021/03/25 09:21:59;;;;;;;10.73;5.03;;;;;;;15.20;49.25;98564.75;5004406;28;20218;-75
2021/03/25 09:24:27;;;;;;;13.03;5.50;;;;;;;15.99;46.42;98557.75;5009950;28;20719;-75
2021/03/25 09:27:05;;;;;;;16.37;5.60;;;;;;;16.19;45.86;98561.06;5003313;28;20208;-75
2021/03/25 09:30:13;;;;;;;12.13;5.30;;;;;;;15.08;47.60;98555.75;5007705;28;20550;-74
2021/03/25 09:32:41;;;;;;;14.63;4.53;;;;;;;15.51;47.00;98556.69;5008637;28;20286;-74
2021/03/25 09:35:39;;;;;;;17.43;5.70;;;;;;;15.73;46.93;98552.59;5007614;28;20231;-74
2021/03/25 09:38:07;;;;;;;11.53;4.87;;;;;;;16.09;45.39;98562.63;5006254;28;20203;-74
2021/03/25 09:40:44;;;;;;;13.30;5.37;;;;;;;15.74;46.76;98561.47;5011176;28;20207;-74
2021/03/25 09:43:29;;;;;;;11.83;4.83;;;;;;;16.23;47.37;98564.97;5009854;28;20238;-74
2021/03/25 09:45:57;;;;;;;8.80;5.20;;;;;;;16.00;46.79;98558.59;5003340;28;20924;-74
2021/03/25 09:48:28;;;;;;;17.77;5.87;;;;;;;15.76;47.32;98560.22;5008446;28;20209;-74
2021/03/25 09:51:04;;;;;;;13.23;5.63;;;;;;;15.95;48.71;98559.22;5003084;28;20214;-75
2021/03/25 09:53:45;;;;;;;17.87;5.93;;;;;;;16.30;47.43;98571.09;5004795;28;20308;-76
2021/03/25 09:56:33;;;;;;;13.37;5.37;;;;;;;16.07;46.67;98562.88;5002155;28;20265;-75
2021/03/25 09:59:00;;;;;;;13.17;4.97;;;;;;;16.37;46.93;98568.34;5004882;28;20199;-74
2021/03/25 10:01:44;;;;;;;11.40;5.60;;;;;;;16.14;47.70;98562.78;5010527;28;20210;-75
2021/03/25 10:04:32;;;;;;;14.90;6.27;;;;;;;16.15;47.70;98565.25;5004235;28;20227;-74
2021/03/25 10:07:19;;;;;;;12.27;5.33;;;;;;;16.18;47.22;98561.28;5008345;28;20628;-75
2021/03/25 10:10:03;;;;;;;12.73;5.23;;;;;;;16.83;45.79;98553.28;5005414;28;20211;-71
2021/03/25 10:12:54;;;;;;;13.60;5.53;;;;;;;16.41;46.03;98559.59;5002385;28;20203;-71
2021/03/25 10:15:50;;;;;;;14.23;5.13;;;;;;;16.34;46.78;98556.16;5002795;28;20211;-71
2021/03/25 10:18:46;;;;;;;15.03;5.57;;;;;;;17.23;45.53;98551.69;5004594;28;20207;-71
2021/03/25 10:21:16;;;;;;;8.90;4.67;;;;;;;16.53;43.54;98557.84;5003263;28;20592;-71
2021/03/25 10:24:00;;;;;;;14.13;5.17;;;;;;;16.70;45.15;98556.16;5006460;28;20677;-71
2021/03/25 10:26:36;;;;;;;13.83;4.93;;;;;;;16.47;45.79;98544.44;5007440;28;20219;-71
2021/03/25 10:29:05;;;;;;;8.00;4.70;;;;;;;16.41;45.71;98554.22;5005844;28;20478;-71
2021/03/25 10:31:41;;;;;;;8.43;4.90;;;;;;;16.80;43.81;98552.91;5006332;28;20217;-71
2021/03/25 10:34:15;;;;;;;12.07;5.57;;;;;;;16.70;42.88;98553.47;5005348;28;20288;-70
2021/03/25 10:36:47;;;;;;;9.23;4.40;;;;;;;17.14;44.06;98544.16;5011187;28;20218;-71
2021/03/25 10:39:20;;;;;;;8.37;4.50;;;;;;;17.09;43.40;98547.56;5014405;28;20219;-71
2021/03/25 10:41:47;;;;;;;9.23;4.53;;;;;;;17.88;41.12;98544.47;5006221;28;20247;-71
2021/03/25 10:44:19;;;;;;;10.27;4.90;;;;;;;17.31;42.13;98537.88;5011962;28;20224;-71
2021/03/25 10:46:46;;;;;;;10.87;4.80;;;;;;;17.45;42.50;98533.13;5003347;28;20263;-71
2021/03/25 10:49:17;;;;;;;8.13;4.77;;;;;;;17.49;40.74;98542.44;5008991;28;20284;-71
2021/03/25 10:51:46;;;;;;;6.90;4.70;;;;;;;17.04;41.35;98547.41;5001863;28;20215;-72
2021/03/25 10:54:28;;;;;;;10.97;4.97;;;;;;;16.89;42.68;98538.91;5004995;28;20589;-71
2021/03/25 10:57:10;;;;;;;18.30;5.47;;;;;;;17.33;40.72;98543.06;5008112;28;20204;-71
2021/03/25 11:00:00;;;;;;;15.23;5.00;;;;;;;17.09;40.56;98541.34;5003361;28;20210;-71
2021/03/25 11:02:28;;;;;;;7.33;4.43;;;;;;;17.22;41.30;98525.78;5007846;28;20199;-79
2021/03/25 11:05:05;;;;;;;12.33;5.10;;;;;;;17.97;39.88;98532.25;5006292;28;20224;-80
2021/03/25 11:07:39;;;;;;;7.13;4.20;;;;;;;17.17;40.51;98532.94;5009194;28;20207;-71
2021/03/25 11:10:13;;;;;;;10.73;4.53;;;;;;;17.56;40.08;98519.66;5006119;28;20215;-71
2021/03/25 11:12:40;;;;;;;12.57;4.47;;;;;;;18.49;37.80;98526.72;5001673;28;20212;-72
2021/03/25 11:15:15;;;;;;;9.03;4.53;;;;;;;17.96;38.35;98528.75;5005132;28;20619;-72
2021/03/25 11:17:44;;;;;;;6.57;3.77;;;;;;;18.03;37.72;98529.44;5004494;28;20216;-72
2021/03/25 11:20:15;;;;;;;8.47;4.67;;;;;;;17.62;38.21;98518.72;5008232;28;20205;-72
2021/03/25 11:22:44;;;;;;;9.13;4.67;;;;;;;18.29;37.75;98514.63;5004983;28;20211;-72
2021/03/25 11:25:15;;;;;;;6.73;4.20;;;;;;;17.39;37.84;98525.97;5007728;28;20600;-72
2021/03/25 11:27:42;;;;;;;9.67;3.90;;;;;;;17.56;37.40;98518.84;5004902;28;20690;-69
2021/03/25 11:30:26;;;;;;;11.13;4.73;;;;;;;18.11;36.61;98523.69;5005946;28;20203;-72
2021/03/25 11:32:53;;;;;;;9.77;3.53;;;;;;;19.21;35.59;98519.75;5007110;28;20308;-74
2021/03/25 11:35:24;;;;;;;8.63;3.90;;;;;;;19.25;33.63;98521.75;5010268;28;20242;-70
2021/03/25 11:37:53;;;;;;;9.53;4.90;;;;;;;18.96;34.58;98522.81;5009970;28;20219;-77
2021/03/25 11:40:23;;;;;;;12.50;4.17;;;;;;;18.87;34.05;98528.84;5012382;28;20294;-76
2021/03/25 11:43:04;;;;;;;8.33;4.13;;;;;;;18.48;35.10;98521.53;5013816;28;20275;-81
2021/03/25 11:45:39;;;;;;;13.33;4.10;;;;;;;19.18;35.05;98509.41;5014117;28;20201;-82
2021/03/25 11:48:18;;;;;;;7.63;4.07;;;16.50;1.00;;;19.58;33.78;98513.69;5011009;28;20207;-81
2021/03/25 11:50:46;;;;;;;14.00;4.33;;;16.50;1.00;;;20.22;31.92;98515.75;5014491;28;20213;-83
2021/03/25 11:53:35;;;;;;;10.17;4.33;;;16.60;1.00;;;19.52;32.94;98511.97;5011146;28;20297;-75